Tiempo atmosférico en la estación meteorológica de Sabiñanigo, Huesca (775 m.)



Fecha
DESCASC
Temp. máxima en grados centígrados (hora)
DESCASC
Temp. mínima en grados centígrados (hora)
DESCASC
Temp. media en grados centígrados
DESCASC
Racha de viento máxima en m/sg (hora)
DESCASC
Velocidad máxima media en intervalos de 10 minutos(hora)
DESCASC
Precipitaciones diarias en mm
DESCASC
Precipitaciones de 00:00 a 06:00 en mm
DESCASC
Precipitaciones de 06:00 a 12:00 en mm
DESCASC
Precipitaciones de 12:00 a 18:00 en mm
DESCASC
Precipitaciones de 18:00 a 24:00 en mm
DESCASC
13-06-2019 24.6 (18:20) 8.2 (01:20) 16.4 9.44 (18:30) 5.56 (18:30) 0 0 0 0 0
12-06-2019 20.2 (18:50) 1.6 (07:00) 10.9 -- (--) -- (--) 0 0 0 0 0
11-06-2019 16.1 (16:30) 7.3 (06:40) 11.7 13.06 (17:20) 6.39 (19:10) 1.8 0.8 0.4 0.6 0
10-06-2019 20.4 (14:50) 9.7 (07:10) 15 10.83 (16:00) 5.83 (16:00) 0.2 0.2 0 0 0
09-06-2019 26 (15:30) 14.1 (00:00) 20.1 8.33 (20:40) 4.72 (21:20) 0 0 0 0 0
08-06-2019 24.2 (18:00) 3.8 (00:00) 14 8.33 (11:40) 3.61 (18:30) 0 0 0 0 0
07-06-2019 19 (17:10) 9 (00:00) 14 10.28 (06:10) 5 (16:10) 2.6 0 2.6 0 0
06-06-2019 22.4 (17:20) 7 (00:00) 14.7 12.78 (18:30) 6.67 (21:20) 0 0 0 0 0
05-06-2019 16.2 (00:00) 8.5 (00:00) 12.4 11.11 (19:50) 6.11 (19:10) 14.8 0 13.8 1 0
04-06-2019 29.7 (18:40) 13.7 (00:00) 21.7 14.17 (22:00) 7.22 (22:00) 0 0 0 0 0
03-06-2019 30.4 (17:40) 16.1 (00:00) 23.3 6.11 (00:50) 3.61 (20:20) 0 0 0 0 0
02-06-2019 31 (15:30) 10.1 (00:00) 20.6 3.61 (22:40) 2.78 (19:20) 0 0 0 0 0
01-06-2019 29.7 (16:50) 9.4 (00:00) 19.6 5.56 (19:20) 2.78 (20:50) 0 0 0 0 0
31-05-2019 27.6 (17:20) 6.3 (00:00) 17 5 (16:10) 3.06 (18:50) 0 0 0 0 0
30-05-2019 27.4 (18:20) 4.6 (00:00) 16 6.39 (21:00) 3.61 (21:00) 0 0 0 0 0
29-05-2019 21 (17:00) 4.2 (00:00) 12.6 9.72 (18:50) 5.28 (19:00) 0 0 0 0 0
28-05-2019 19.1 (16:20) 5.4 (00:00) 12.3 15.83 (17:40) 7.78 (15:20) 0 0 0 0 0
27-05-2019 22.7 (16:40) 5.5 (00:00) 14.1 12.78 (18:30) 7.5 (18:30) 0 0 0 0 0
26-05-2019 21.3 (15:50) 4.3 (00:00) 12.8 9.17 (18:30) 5.28 (17:20) 0 0 0 0 0
25-05-2019 21.4 (16:30) 6.4 (00:00) 13.9 10 (18:30) 5.83 (18:20) 0 0 0 0 0
24-05-2019 18.5 (17:50) 10.3 (00:00) 14.4 8.33 (03:20) 4.44 (03:10) 10 7 3 0 0
23-05-2019 24.6 (16:20) 6.6 (00:00) 15.6 14.44 (19:50) 7.5 (20:00) 0 0 0 0 0
22-05-2019 23.4 (18:20) 4.5 (00:00) 13.9 7.22 (15:50) 3.61 (16:00) 0 0 0 0 0
21-05-2019 21.4 (17:00) 2.3 (07:30) 11.8 8.06 (19:00) 5 (18:50) 0 0 0 0 0
20-05-2019 18.5 (16:20) 2.8 (07:40) 10.6 8.33 (18:40) 4.72 (16:10) 0 0 0 0 0
19-05-2019 14.9 (15:50) 4.4 (00:00) 9.6 11.67 (18:30) 6.94 (14:20) 0.2 0.2 0 0 0
18-05-2019 13.7 (17:30) 4 (00:00) 8.8 11.39 (14:20) 6.11 (17:50) 0.4 0 0 0.4 0
17-05-2019 13.8 (00:00) 6.9 (00:00) 10.4 11.94 (17:40) 6.67 (17:30) 37.8 27.6 10.2 0 0

Gráficas

Temp. máximas Temp. mínimas Temp. medias Precipitaciones Rachas de viento máximas Velocidades máximas media en intervalos de 10 minutos

Datos horarios

Fecha y hora oficial Temperatura (ºC) Velocidad del viento (km/h) Dirección del viento Racha (km/h) Dirección de racha Precipitación (mm) Presión (hPa) Tendencia (hPa) Humedad (%)
2019-06-15 23:00:00 14.4 0 Calma 11 Noroeste 0 -- -- 61
2019-06-15 22:00:00 16.3 5 Noroeste 23 Oeste 0 -- -- 55
2019-06-15 21:00:00 18.2 14 Oeste 27 Oeste 0 -- -- 43
2019-06-15 20:00:00 21 12 Oeste 28 Oeste 0 -- -- 37
2019-06-15 19:00:00 21.8 16 Oeste 30 Noroeste 0 -- -- 32
2019-06-15 18:00:00 22.8 11 Oeste 21 Oeste 0 -- -- 31
2019-06-15 17:00:00 22.6 13 Oeste 21 Oeste 0 -- -- 29
2019-06-15 16:00:00 22.5 10 Oeste 23 Oeste 0 -- -- 29
2019-06-15 15:00:00 21.9 11 Noroeste 27 Sudoeste 0 -- -- 31
2019-06-15 14:00:00 21.2 13 Oeste 22 Noroeste 0 -- -- 34
2019-06-15 13:00:00 19.4 4 Oeste 13 Este 0 -- -- 50
2019-06-15 12:00:00 18 5 Este 13 Nordeste 0 -- -- 61
2019-06-15 11:00:00 16.2 6 Nordeste 11 Nordeste 0 -- -- 67
2019-06-15 10:00:00 13.6 3 Sur 10 Noroeste 0 -- -- 79
2019-06-15 09:00:00 12.6 4 Sudoeste 10 Oeste 0 -- -- 84
2019-06-15 08:00:00 11.8 2 Sur 10 Norte 0 -- -- 87
2019-06-15 07:00:00 11.3 3 Noroeste 17 Oeste 0 -- -- 90
2019-06-15 06:00:00 11.5 5 Oeste 10 Oeste 0 -- -- 88
2019-06-15 05:00:00 11.9 0 Calma 13 Noroeste 0 -- -- 88
2019-06-15 04:00:00 12 5 Noroeste 17 Noroeste 0 -- -- 87
2019-06-15 03:00:00 13.2 4 Oeste 14 Oeste 0 -- -- 81
2019-06-15 02:00:00 14.7 7 Oeste 15 Este 0 -- -- 75
2019-06-15 01:00:00 15.4 4 Este 9 Nordeste 0 -- -- 74
2019-06-15 00:00:00 15.7 4 Este 6 Nordeste 0 -- -- 71
2019-06-14 23:00:00 16.7 0 Calma 9 Este 0 -- -- 63
2019-06-14 22:00:00 18.7 3 Nordeste 14 Norte 0 -- -- 58
2019-06-14 21:00:00 21.1 8 Noroeste 13 Noroeste 0 -- -- 48
2019-06-14 20:00:00 23.5 6 Norte 12 Norte 0 -- -- 39
2019-06-14 19:00:00 24 3 Norte 8 Nordeste 0 -- -- 39
2019-06-14 18:00:00 23.4 5 Nordeste 10 Nordeste 0 -- -- 45
2019-06-14 17:00:00 21.2 3 Norte 9 Sudeste 0 -- -- 52
2019-06-14 16:00:00 19.3 6 Sudeste 16 Este 0 -- -- 68
2019-06-14 15:00:00 15.7 3 Este 13 Oeste 0.8 -- -- 80
2019-06-14 14:00:00 15.4 9 Oeste 20 Sudoeste 0.4 -- -- 79
2019-06-14 13:00:00 16.7 0 Calma 8 Sudeste 0 -- -- 66
2019-06-14 12:00:00 15.7 2 Sur 10 Sudoeste 0 -- -- 70
2019-06-14 11:00:00 14.3 3 Este 8 Norte 0 -- -- 77
2019-06-14 10:00:00 14.2 3 Este 9 Noroeste 0 -- -- 72
2019-06-14 09:00:00 13.9 5 Sudoeste 10 Oeste 0 -- -- 69
2019-06-14 08:00:00 12.8 2 Sudeste 8 Este 0 -- -- 72
2019-06-14 07:00:00 11.9 2 Sudeste 13 Oeste 0 -- -- 71
2019-06-14 06:00:00 12.7 4 Sudeste 10 Sur 0 -- -- 66
2019-06-14 05:00:00 13.8 3 Sur 9 Sur 0 -- -- 61
2019-06-14 04:00:00 15.3 2 Sur 9 Norte 0 -- -- 56
2019-06-14 03:00:00 16.2 0 Calma 9 Nordeste 0 -- -- 51
2019-06-14 02:00:00 16.4 5 Este 13 Este 0 -- -- 50
2019-06-14 01:00:00 17.6 6 Este 15 Nordeste 0 -- -- 48
2019-06-14 00:00:00 18.4 0 Calma 12 Sudeste 0 -- -- 44
2019-06-13 23:00:00 19.3 8 Norte 23 Nordeste 0 -- -- 41
2019-06-13 22:00:00 19.4 6 Nordeste 30 Sudeste 0 -- -- 43
2019-06-13 21:00:00 21.6 10 Este 25 Este 0 -- -- 42
2019-06-13 20:00:00 23.5 13 Este 26 Este 0 -- -- 34
2019-06-13 19:00:00 23.9 18 Nordeste 34 Nordeste 0 -- -- 31
2019-06-13 18:00:00 24.4 15 Nordeste 31 Este 0 -- -- 34
2019-06-13 17:00:00 23.1 18 Este 32 Nordeste 0 -- -- 37
2019-06-13 16:00:00 23.8 9 Este 31 Nordeste 0 -- -- 36
2019-06-13 15:00:00 23.1 11 Nordeste 26 Este 0 -- -- 37
2019-06-13 14:00:00 23 14 Este 32 Nordeste 0 -- -- 38
2019-06-13 13:00:00 21.3 17 Este 30 Este 0 -- -- 41
2019-06-13 12:00:00 18.7 10 Este 29 Este 0 -- -- 44
2019-06-13 11:00:00 17.8 14 Este 28 Este 0 -- -- 43
2019-06-13 10:00:00 15.7 14 Nordeste 23 Nordeste 0 -- -- 43
2019-06-13 09:00:00 13.6 4 Sudeste 15 Este 0 -- -- 47
2019-06-13 08:00:00 12.2 2 Sudeste 8 Noroeste 0 -- -- 56
2019-06-13 07:00:00 10.6 2 Sudeste 12 Norte 0 -- -- 62
2019-06-13 06:00:00 9.6 4 Este 11 Nordeste 0 -- -- 64
2019-06-13 05:00:00 8.6 2 Sudeste 7 Este 0 -- -- 71
2019-06-13 04:00:00 9.7 0 Calma 8 Sudeste 0 -- -- 65
2019-06-13 03:00:00 10.8 4 Sudeste 18 Nordeste 0 -- -- 59
2019-06-13 02:00:00 8.7 0 Calma 8 Este 0 -- -- 69
2019-06-13 01:00:00 8.9 0 Calma 6 Sudoeste 0 -- -- 69
2019-06-13 00:00:00 10.5 3 Noroeste 9 Este 0 -- -- 58
2019-06-12 23:00:00 11.8 2 Nordeste 6 Sudeste 0 -- -- 56
2019-06-12 22:00:00 14 2 Noroeste 7 Nordeste 0 -- -- 49
2019-06-12 21:00:00 16 3 Sudeste 6 Norte 0 -- -- 42
2019-06-12 20:00:00 18.2 3 Norte 12 Nordeste 0 -- -- 25
2019-06-12 19:00:00 19.8 3 Nordeste 17 Oeste 0 -- -- 23
2019-06-12 18:00:00 19.3 -- -- -- -- 0 -- -- 21
2019-06-12 17:00:00 19.5 6 Oeste 46 Sudoeste 0 -- -- 21
2019-06-12 16:00:00 18.1 3 Sudoeste 17 Sudeste 0 -- -- 29
2019-06-12 15:00:00 16.6 5 Sudeste 20 Oeste 0 -- -- 31
2019-06-12 14:00:00 16.2 6 Nordeste 15 Sudoeste 0 -- -- 35
2019-06-12 13:00:00 14.6 5 Nordeste 16 Nordeste 0 -- -- 37
2019-06-12 12:00:00 14.7 5 Nordeste 16 Noroeste 0 -- -- 36
2019-06-12 11:00:00 12.6 9 Noroeste 15 Noroeste 0 -- -- 41
2019-06-12 10:00:00 9.1 3 Este 6 Este 0 -- -- 64
2019-06-12 09:00:00 5.7 3 Norte 5 Norte 0 -- -- 83
2019-06-12 08:00:00 3.3 0 Calma 4 Este 0 -- -- 92
2019-06-12 07:00:00 1.6 0 Calma 4 Este 0 -- -- 92
2019-06-12 06:00:00 2 0 Calma 5 Este 0 -- -- 91
2019-06-12 05:00:00 2.7 2 Sudeste 5 Este 0 -- -- 90
2019-06-12 04:00:00 3.5 2 Sudeste 5 Sudeste 0 -- -- 87
2019-06-12 03:00:00 4.5 0 Calma 7 Nordeste 0 -- -- 84
2019-06-12 02:00:00 5.1 4 Este 12 Este 0 -- -- 83
2019-06-12 01:00:00 6.2 3 Sudeste 9 Noroeste 0 -- -- 79
2019-06-12 00:00:00 7.7 0 Calma 12 Sudoeste 0 -- -- 71
2019-06-11 23:00:00 8.6 0 Calma 21 Sudoeste 0 -- -- 66
2019-06-11 22:00:00 10 14 Oeste 33 Oeste 0 -- -- 58
2019-06-11 21:00:00 11.5 17 Sudoeste 37 Oeste 0 -- -- 53
2019-06-11 20:00:00 13.9 17 Oeste 39 Oeste 0 -- -- 47
2019-06-11 19:00:00 14.8 22 Oeste 38 Oeste 0 -- -- 42
2019-06-11 18:00:00 15.6 22 Oeste 47 Sudoeste 0 -- -- 38
2019-06-11 17:00:00 16.1 20 Sudoeste 35 Sudoeste 0 -- -- 38
2019-06-11 16:00:00 15.7 18 Sudoeste 35 Oeste 0 -- -- 42
2019-06-11 15:00:00 13.6 19 Oeste 37 Oeste 0 -- -- 56
2019-06-11 14:00:00 12.8 4 Este 13 Sudeste 0.2 -- -- 76
2019-06-11 13:00:00 11.2 2 Nordeste 12 Este 0.4 -- -- 76
2019-06-11 12:00:00 10.3 4 Sudeste 10 Sudeste 0 -- -- 76
2019-06-11 11:00:00 9.3 5 Sur 14 Oeste 0.2 -- -- 82
2019-06-11 10:00:00 8.5 6 Oeste 17 Oeste 0 -- -- 81
2019-06-11 09:00:00 8 6 Oeste 14 Noroeste 0 -- -- 87
2019-06-11 08:00:00 7.4 6 Oeste 17 Oeste 0.2 -- -- 89
2019-06-11 07:00:00 7.3 7 Oeste 15 Sudoeste 0 -- -- 88
2019-06-11 06:00:00 7.7 5 Oeste 16 Oeste 0.4 -- -- 87
2019-06-11 05:00:00 8.3 10 Oeste 23 Oeste 0.2 -- -- 83
2019-06-11 04:00:00 9.4 8 Oeste 14 Oeste 0 -- -- 75
2019-06-11 03:00:00 10.2 2 Sur 8 Este 0 -- -- 81
2019-06-11 02:00:00 10.3 3 Norte 15 Este 0.2 -- -- 79
2019-06-11 01:00:00 10.8 4 Este 10 Sudoeste 0 -- -- 79
2019-06-11 00:00:00 11 3 Nordeste 13 Noroeste 0 -- -- 68
2019-06-10 23:00:00 11.4 5 Oeste 21 Oeste 0 -- -- 65
2019-06-10 22:00:00 12.3 8 Oeste 18 Noroeste 0 -- -- 62
2019-06-10 21:00:00 13.7 10 Oeste 28 Sudoeste 0 -- -- 57
2019-06-10 20:00:00 14.8 13 Oeste 29 Oeste 0 -- -- 49
2019-06-10 19:00:00 17.4 13 Oeste 27 Noroeste 0 -- -- 46
2019-06-10 18:00:00 19.4 13 Oeste 31 Oeste 0 -- -- 40
2019-06-10 17:00:00 19.5 17 Oeste 36 Oeste 0 -- -- 37
2019-06-10 16:00:00 19.7 21 Oeste 39 Oeste 0 -- -- 40
2019-06-10 15:00:00 20.2 16 Oeste 30 Oeste 0 -- -- 41
2019-06-10 14:00:00 19.9 12 Oeste 23 Noroeste 0 -- -- 44
2019-06-10 13:00:00 19.2 12 Oeste 24 Oeste 0 -- -- 49
2019-06-10 12:00:00 17.6 7 Noroeste 18 Noroeste 0 -- -- 55
2019-06-10 11:00:00 15.5 9 Oeste 19 Noroeste 0 -- -- 62
2019-06-10 10:00:00 13.5 6 Oeste 13 Noroeste 0 -- -- 69
2019-06-10 09:00:00 11.3 4 Este 12 Noroeste 0 -- -- 80
2019-06-10 08:00:00 10.3 3 Noroeste 8 Norte 0 -- -- 84
2019-06-10 07:00:00 9.8 2 Este 8 Este 0 -- -- 88
2019-06-10 06:00:00 10.1 0 Calma 9 Oeste 0 -- -- 87
2019-06-10 05:00:00 10.4 0 Calma 10 Noroeste 0 -- -- 88
2019-06-10 04:00:00 11 2 Sudeste 17 Sudoeste 0 -- -- 86
2019-06-10 03:00:00 11.9 8 Noroeste 17 Sudoeste 0 -- -- 85
2019-06-10 02:00:00 12.7 10 Nordeste 22 Nordeste 0.2 -- -- 83
2019-06-10 01:00:00 13.7 9 Noroeste 15 Noroeste 0 -- -- 74
2019-06-10 00:00:00 14.3 3 Sur 21 Oeste 0 -- -- 73
2019-06-09 23:00:00 15 14 Noroeste 29 Noroeste 0 -- -- 70
2019-06-09 22:00:00 17.9 13 Oeste 30 Oeste 0 -- -- 58
2019-06-09 21:00:00 21.4 14 Oeste 30 Noroeste 0 -- -- 48
2019-06-09 20:00:00 25.1 7 Oeste 18 Oeste 0 -- -- 26
2019-06-09 19:00:00 25.2 11 Oeste 18 Oeste 0 -- -- 28
2019-06-09 18:00:00 25 11 Oeste 18 Oeste 0 -- -- 31
2019-06-09 17:00:00 25 5 Oeste 13 Oeste 0 -- -- 32
2019-06-09 16:00:00 24.2 5 Norte 17 Noroeste 0 -- -- 35
2019-06-09 15:00:00 24 7 Nordeste 16 Sudoeste 0 -- -- 34
2019-06-09 14:00:00 23.6 7 Sur 17 Sudoeste 0 -- -- 34
2019-06-09 13:00:00 23.1 6 Sur 17 Sur 0 -- -- 36
2019-06-09 12:00:00 22.4 5 Nordeste 12 Este 0 -- -- 34
2019-06-09 11:00:00 20.7 0 Calma 11 Nordeste 0 -- -- 43
2019-06-09 10:00:00 17.9 4 Norte 9 Norte 0 -- -- 55
2019-06-09 09:00:00 15.7 4 Sur 8 Sur 0 -- -- 62
2019-06-09 08:00:00 14.7 0 Calma 7 Sudeste 0 -- -- 64
2019-06-09 07:00:00 14.4 3 Sudeste 7 Sudoeste 0 -- -- 62
2019-06-09 06:00:00 14.8 0 Calma 10 Este 0 -- -- 60
2019-06-09 05:00:00 14.6 0 Calma 10 Sur 0 -- -- 63
2019-06-09 04:00:00 14.9 3 Sudeste 8 Sudeste 0 -- -- 62
2019-06-09 03:00:00 14.6 4 Sur 7 Este 0 -- -- 61
2019-06-09 02:00:00 15.5 3 Este 14 Nordeste 0 -- -- 57
2019-06-09 01:00:00 16.6 4 Nordeste 22 Este 0 -- -- 52
2019-06-09 00:00:00 17.2 6 Nordeste 23 Nordeste 0 -- -- 51
2019-06-08 23:00:00 17.8 13 Este 24 Este 0 -- -- 46
2019-06-08 22:00:00 18.7 6 Este 13 Este 0 -- -- 48
2019-06-08 21:00:00 20.1 5 Sudeste 17 Sudeste 0 -- -- 43
2019-06-08 20:00:00 21.3 8 Este 17 Sudeste 0 -- -- 40
2019-06-08 19:00:00 22.6 8 Sudeste 21 Este 0 -- -- 37
2019-06-08 18:00:00 24.2 9 Este 21 Este 0 -- -- 33
2019-06-08 17:00:00 24 5 Este 14 Sudeste 0 -- -- 31
2019-06-08 16:00:00 23.5 6 Este 18 Este 0 -- -- 29
2019-06-08 15:00:00 24.1 12 Este 22 Este 0 -- -- 29
2019-06-08 14:00:00 21.9 10 Nordeste 26 Este 0 -- -- 31
2019-06-08 13:00:00 21.6 9 Este 21 Este 0 -- -- 31
2019-06-08 12:00:00 20.3 10 Este 30 Este 0 -- -- 30
2019-06-08 11:00:00 17.5 3 Este 7 Este 0 -- -- 41
2019-06-08 10:00:00 12.9 2 Sudeste 6 Este 0 -- -- 52
2019-06-08 09:00:00 9.1 0 Calma 4 Sudeste 0 -- -- 59
2019-06-08 08:00:00 5.8 0 Calma 7 Este 0 -- -- 83
2019-06-08 07:00:00 3.9 2 Sudeste 5 Sudeste 0 -- -- 88
2019-06-08 06:00:00 4.3 3 Nordeste 8 Este 0 -- -- 86
2019-06-08 05:00:00 4.5 0 Calma 6 Este 0 -- -- 87
2019-06-08 04:00:00 5.3 2 Este 5 Este 0 -- -- 84
2019-06-08 03:00:00 6.5 3 Este 7 Este 0 -- -- 79
2019-06-08 02:00:00 7.3 4 Nordeste 8 Este 0 -- -- 76
2019-06-08 01:00:00 8.1 2 Nordeste 8 Norte 0 -- -- 75
2019-06-08 00:00:00 9 0 Calma 6 Este 0 -- -- 67
2019-06-07 23:00:00 11.4 4 Nordeste 18 Noroeste 0 -- -- 61
2019-06-07 22:00:00 13.8 7 Noroeste 15 Noroeste 0 -- -- 44
2019-06-07 21:00:00 16.8 6 Sudoeste 20 Oeste 0 -- -- 31
2019-06-07 20:00:00 18.5 13 Oeste 26 Sudoeste 0 -- -- 24
2019-06-07 19:00:00 18.8 13 Sudoeste 26 Oeste 0 -- -- 25
2019-06-07 18:00:00 18.9 13 Oeste 26 Oeste 0 -- -- 26
2019-06-07 17:00:00 18.9 12 Sudoeste 34 Sudoeste 0 -- -- 27
2019-06-07 16:00:00 18.6 16 Sudoeste 30 Sudoeste 0 -- -- 28
2019-06-07 15:00:00 17.6 15 Oeste 30 Oeste 0 -- -- 31
2019-06-07 14:00:00 16.4 11 Oeste 23 Oeste 0 -- -- 37
2019-06-07 13:00:00 15 6 Noroeste 22 Oeste 0 -- -- 41
2019-06-07 12:00:00 14.7 8 Oeste 18 Sudoeste 0 -- -- 56
2019-06-07 11:00:00 13.1 6 Oeste 15 Oeste 0 -- -- 69
2019-06-07 10:00:00 10.5 4 Oeste 15 Oeste 0.2 -- -- 86
2019-06-07 09:00:00 10.5 8 Sudoeste 24 Oeste 1 -- -- 87
2019-06-07 08:00:00 12.5 8 Sur 24 Sudeste 0.8 -- -- 86
2019-06-07 07:00:00 13.7 15 Sudeste 37 Este 0.6 -- -- 75
2019-06-07 06:00:00 14.7 10 Sudeste 29 Este 0 -- -- 63
2019-06-07 05:00:00 14.6 8 Este 22 Sudeste 0 -- -- 62
2019-06-07 04:00:00 14.6 11 Este 27 Este 0 -- -- 60
2019-06-07 03:00:00 14.6 3 Nordeste 22 Nordeste 0 -- -- 58
2019-06-07 02:00:00 15.1 12 Nordeste 27 Nordeste 0 -- -- 52
2019-06-07 01:00:00 15.2 12 Este 31 Este 0 -- -- 52
2019-06-07 00:00:00 15.6 16 Este 41 Este 0 -- -- 51
2019-06-06 23:00:00 16.2 11 Sudeste 41 Este 0 -- -- 50
2019-06-06 22:00:00 16.4 16 Este 45 Sudeste 0 -- -- 50
2019-06-06 21:00:00 17.5 24 Este 46 Este 0 -- -- 50
2019-06-06 20:00:00 19.4 15 Este 30 Sudeste 0 -- -- 45
2019-06-06 19:00:00 19.4 19 Este 46 Sudeste 0 -- -- 42
2019-06-06 18:00:00 21.2 16 Sudeste 35 Este 0 -- -- 34
2019-06-06 17:00:00 22.2 13 Este 34 Sudeste 0 -- -- 28
2019-06-06 16:00:00 20.8 8 Sudeste 41 Este 0 -- -- 31
2019-06-06 15:00:00 21.1 10 Sudeste 31 Sudeste 0 -- -- 28
2019-06-06 14:00:00 19.9 10 Sudeste 35 Sudeste 0 -- -- 37
2019-06-06 13:00:00 18.6 12 Sudeste 35 Sudeste 0 -- -- 39
2019-06-06 12:00:00 17.1 10 Este 17 Este 0 -- -- 47
2019-06-06 11:00:00 15.7 4 Sur 8 Sur 0 -- -- 50
2019-06-06 10:00:00 12.7 4 Este 7 Sudeste 0 -- -- 64
2019-06-06 09:00:00 9.7 2 Este 4 Sudeste 0 -- -- 81
2019-06-06 08:00:00 7.7 0 Calma 5 Sudeste 0 -- -- 90
2019-06-06 07:00:00 7.1 0 Calma 5 Nordeste 0 -- -- 92
2019-06-06 06:00:00 7.3 0 Calma 5 Este 0 -- -- 91
2019-06-06 05:00:00 7.5 3 Sudeste 4 Noroeste 0 -- -- 90
2019-06-06 04:00:00 7.7 0 Calma 10 Este 0 -- -- 89
2019-06-06 03:00:00 8.1 0 Calma 8 Sudoeste 0 -- -- 87
2019-06-06 02:00:00 8.3 5 Sudoeste 8 Este 0 -- -- 84
2019-06-06 01:00:00 8.1 2 Sudeste 12 Este 0 -- -- 85
2019-06-06 00:00:00 8.5 0 Calma 6 Noroeste 0 -- -- 83
2019-06-05 23:00:00 9.8 3 Noroeste 13 Sudoeste 0 -- -- 75
2019-06-05 22:00:00 10.9 7 Noroeste 17 Noroeste 0 -- -- 69
2019-06-05 21:00:00 12.3 8 Sudoeste 37 Oeste 0 -- -- 63
2019-06-05 20:00:00 14.2 15 Oeste 40 Oeste 0 -- -- 55
2019-06-05 19:00:00 15 17 Oeste 37 Sudoeste 0 -- -- 53
2019-06-05 18:00:00 16.2 19 Oeste 38 Oeste 0 -- -- 49
2019-06-05 17:00:00 15.8 18 Oeste 35 Oeste 0 -- -- 54
2019-06-05 16:00:00 13.3 13 Oeste 33 Oeste 0 -- -- 64
2019-06-05 15:00:00 13.4 14 Oeste 28 Noroeste 0 -- -- 68
2019-06-05 14:00:00 12.1 13 Oeste 26 Oeste 0 -- -- 77
2019-06-05 13:00:00 11.5 4 Noroeste 10 Noroeste 1 -- -- 88
2019-06-05 12:00:00 9.8 3 Noroeste 18 Oeste 3.8 -- -- 93
2019-06-05 11:00:00 9.8 12 Oeste 40 Oeste 4.4 -- -- 90
2019-06-05 10:00:00 12.3 11 Este 27 Sudoeste 5.6 -- -- 90
2019-06-05 09:00:00 12.3 6 Oeste 11 Oeste 0 -- -- 82
2019-06-05 08:00:00 12 4 Nordeste 30 Oeste 0 -- -- 83
2019-06-05 07:00:00 11.8 9 Oeste 19 Oeste 0 -- -- 85
2019-06-05 06:00:00 11.8 5 Noroeste 30 Oeste 0 -- -- 84
2019-06-05 05:00:00 12.3 14 Oeste 30 Oeste 0 -- -- 86
2019-06-05 04:00:00 13.1 5 Oeste 12 Oeste 0 -- -- 87
2019-06-05 03:00:00 13.7 9 Oeste 19 Oeste 0 -- -- 85
2019-06-05 02:00:00 14.8 8 Oeste 17 Oeste 0 -- -- 85
2019-06-05 01:00:00 15.5 5 Oeste 14 Oeste 0 -- -- 83
2019-06-05 00:00:00 16.2 6 Oeste 22 Oeste 0 -- -- 80
2019-06-04 23:00:00 18.4 3 Norte 34 Oeste 0 -- -- 67
2019-06-04 22:00:00 19.5 26 Oeste 51 Oeste 0 -- -- 57
2019-06-04 21:00:00 25.2 15 Sudeste 28 Este 0 -- -- 33
2019-06-04 20:00:00 27 12 Sudeste 25 Sudeste 0 -- -- 28
2019-06-04 19:00:00 29.7 9 Este 13 Sudeste 0 -- -- 23
2019-06-04 18:00:00 29.6 6 Sudeste 27 Sur 0 -- -- 21
2019-06-04 17:00:00 28.5 11 Sur 26 Sudoeste 0 -- -- 23
2019-06-04 16:00:00 29.1 8 Sur 22 Sur 0 -- -- 23
2019-06-04 15:00:00 29.1 9 Sur 22 Sur 0 -- -- 20
2019-06-04 14:00:00 28.8 10 Sur 14 Sudoeste 0 -- -- 22
2019-06-04 13:00:00 28.4 10 Sudeste 14 Sudeste 0 -- -- 23
2019-06-04 12:00:00 27.1 6 Sudeste 17 Este 0 -- -- 26
2019-06-04 11:00:00 25 12 Este 20 Este 0 -- -- 32
2019-06-04 10:00:00 20.5 3 Nordeste 6 Este 0 -- -- 50
2019-06-04 09:00:00 16.7 0 Calma 6 Sur 0 -- -- 62
2019-06-04 08:00:00 14.3 0 Calma 5 Sur 0 -- -- 69
2019-06-04 07:00:00 13.8 3 Sudeste 7 Sudeste 0 -- -- 67
2019-06-04 06:00:00 15.5 3 Sudeste 9 Noroeste 0 -- -- 60
2019-06-04 05:00:00 15.1 2 Este 12 Este 0 -- -- 62
2019-06-04 04:00:00 16.3 5 Sudoeste 10 Oeste 0 -- -- 61
2019-06-04 03:00:00 17.4 3 Sudeste 11 Sudeste 0 -- -- 57
2019-06-04 02:00:00 19.1 3 Sur 7 Nordeste 0 -- -- 52
2019-06-04 01:00:00 21.2 0 Calma 8 Este 0 -- -- 43
2019-06-04 00:00:00 22 0 Calma 10 Este 0 -- -- 40
2019-06-03 23:00:00 21.9 5 Este 12 Este 0 -- -- 41
2019-06-03 22:00:00 23.2 5 Este 17 Este 0 -- -- 39
2019-06-03 21:00:00 25.4 8 Este 21 Sudeste 0 -- -- 34
2019-06-03 20:00:00 28.2 8 Sudeste 15 Este 0 -- -- 27
2019-06-03 19:00:00 30.1 5 Sudoeste 11 Sudeste 0 -- -- 20
2019-06-03 18:00:00 30.2 5 Sur 11 Sudoeste 0 -- -- 22
2019-06-03 17:00:00 30.3 7 Sur 10 Sudoeste 0 -- -- 25
2019-06-03 16:00:00 30 8 Sur 11 Sur 0 -- -- 26
2019-06-03 15:00:00 29.7 6 Sudoeste 11 Nordeste 0 -- -- 26
2019-06-03 14:00:00 28.9 6 Sudeste 12 Nordeste 0 -- -- 28
2019-06-03 13:00:00 28 9 Sudeste 15 Sudeste 0 -- -- 28
2019-06-03 12:00:00 24.6 7 Este 14 Este 0 -- -- 34
2019-06-03 11:00:00 22.6 2 Sudeste 9 Sudoeste 0 -- -- 51
2019-06-03 10:00:00 20.3 3 Sur 8 Este 0 -- -- 55
2019-06-03 09:00:00 18.2 2 Sur 10 Este 0 -- -- 61
2019-06-03 08:00:00 16.9 5 Nordeste 16 Oeste 0 -- -- 66
2019-06-03 07:00:00 16.1 0 Calma 9 Norte 0 -- -- 63
2019-06-03 06:00:00 18.1 2 Este 12 Sudeste 0 -- -- 53
2019-06-03 05:00:00 17.6 5 Nordeste 13 Norte 0 -- -- 62
2019-06-03 04:00:00 18.1 3 Norte 13 Norte 0 -- -- 56
2019-06-03 03:00:00 17 0 Calma 6 Norte 0 -- -- 64
2019-06-03 02:00:00 18.8 3 Noroeste 12 Nordeste 0 -- -- 57
2019-06-03 01:00:00 19.4 4 Nordeste 22 Noroeste 0 -- -- 55
2019-06-03 00:00:00 19.7 0 Calma 12 Este 0 -- -- 49
2019-06-02 23:00:00 21.3 4 Este 13 Este 0 -- -- 41
2019-06-02 22:00:00 23.3 2 Nordeste 10 Este 0 -- -- 38
2019-06-02 21:00:00 26 2 Sudeste 9 Sur 0 -- -- 37
2019-06-02 20:00:00 28.9 5 Sur 12 Sudoeste 0 -- -- 24
2019-06-02 19:00:00 30.6 8 Sudoeste 12 Oeste 0 -- -- 21
2019-06-02 18:00:00 30.7 7 Oeste 10 Oeste 0 -- -- 20
2019-06-02 17:00:00 31 4 Sudoeste 10 Oeste 0 -- -- 21
2019-06-02 16:00:00 30.7 7 Sudoeste 10 Sur 0 -- -- 21
2019-06-02 15:00:00 30.6 5 Sudeste 10 Sudeste 0 -- -- 23
2019-06-02 14:00:00 29.2 7 Este 10 Noroeste 0 -- -- 22
2019-06-02 13:00:00 28.8 6 Este 9 Nordeste 0 -- -- 23
2019-06-02 12:00:00 27.1 4 Este 8 Nordeste 0 -- -- 26
2019-06-02 11:00:00 23.7 3 Este 7 Este 0 -- -- 45
2019-06-02 10:00:00 19.6 2 Noroeste 7 Norte 0 -- -- 53
2019-06-02 09:00:00 15.2 0 Calma 5 Este 0 -- -- 66
2019-06-02 08:00:00 11.8 0 Calma 4 Nordeste 0 -- -- 83
2019-06-02 07:00:00 10.1 0 Calma 5 Este 0 -- -- 85
2019-06-02 06:00:00 10.6 0 Calma 6 Este 0 -- -- 83
2019-06-02 05:00:00 10.9 2 Este 8 Sudeste 0 -- -- 82
2019-06-02 04:00:00 11.3 5 Sudeste 8 Sudeste 0 -- -- 79
2019-06-02 03:00:00 12.3 0 Calma 6 Este 0 -- -- 77
2019-06-02 02:00:00 13.2 5 Sudeste 8 Este 0 -- -- 73
2019-06-02 01:00:00 14.2 3 Este 7 Este 0 -- -- 69
2019-06-02 00:00:00 15.9 0 Calma 8 Este 0 -- -- 65
2019-06-01 23:00:00 19.1 0 Calma 7 Este 0 -- -- 54
2019-06-01 22:00:00 22.7 0 Calma 15 Sudoeste 0 -- -- 40
2019-06-01 21:00:00 25.7 10 Sudoeste 17 Sudoeste 0 -- -- 29
2019-06-01 20:00:00 28.5 6 Sudoeste 20 Sudoeste 0 -- -- 28
2019-06-01 19:00:00 28.8 9 Oeste 13 Sudoeste 0 -- -- 26
2019-06-01 18:00:00 29.3 7 Sudoeste 15 Sudoeste 0 -- -- 27
2019-06-01 17:00:00 29.7 6 Sur 10 Sur 0 -- -- 28
2019-06-01 16:00:00 29.1 5 Sudoeste 10 Sudoeste 0 -- -- 21
2019-06-01 15:00:00 28.5 5 Sudeste 12 Sudoeste 0 -- -- 24
2019-06-01 14:00:00 27.2 8 Este 12 Sur 0 -- -- 29
2019-06-01 13:00:00 25.9 5 Sur 12 Sudeste 0 -- -- 33
2019-06-01 12:00:00 24.7 4 Sudeste 13 Sudeste 0 -- -- 39
2019-06-01 11:00:00 22.5 3 Sudeste 7 Nordeste 0 -- -- 46
2019-06-01 10:00:00 18.5 0 Calma -- -- 0 -- -- 60
2019-06-01 09:00:00 14.1 0 Calma -- -- 0 -- -- 75
2019-06-01 08:00:00 11 0 Calma -- -- 0 -- -- 88
2019-06-01 07:00:00 9.4 0 Calma -- -- 0 -- -- 89
2019-06-01 06:00:00 9.9 0 Calma -- -- 0 -- -- 87
2019-06-01 05:00:00 10.5 0 Calma -- -- 0 -- -- 85
2019-06-01 04:00:00 11.4 0 Calma 0 Calma 0 -- -- 82
2019-06-01 03:00:00 12.1 0 Calma -- -- 0 -- -- 81
2019-06-01 02:00:00 13.3 0 Calma 6 Este 0 -- -- 78
2019-06-01 01:00:00 14.1 3 Este 5 Este 0 -- -- 73
2019-06-01 00:00:00 16.3 0 Calma 4 Nordeste 0 -- -- 66
2019-05-31 23:00:00 19 2 Nordeste 7 Nordeste 0 -- -- 54
2019-05-31 22:00:00 21.9 0 Calma 12 Oeste 0 -- -- 44
2019-05-31 21:00:00 24.7 7 Sudoeste 18 Oeste 0 -- -- 36
2019-05-31 20:00:00 26.9 9 Sudoeste 15 Oeste 0 -- -- 32
2019-05-31 19:00:00 27.2 10 Oeste 15 Oeste 0 -- -- 31
2019-05-31 18:00:00 27.5 11 Oeste 15 Oeste 0 -- -- 30
2019-05-31 17:00:00 27.5 9 Oeste 18 Sudoeste 0 -- -- 32
2019-05-31 16:00:00 26.8 10 Oeste 15 Sudoeste 0 -- -- 33
2019-05-31 15:00:00 26.3 8 Sudoeste 15 Sudeste 0 -- -- 35
2019-05-31 14:00:00 25.8 7 Sudeste 15 Sur 0 -- -- 28
2019-05-31 13:00:00 24.6 6 Sur 15 Oeste 0 -- -- 33
2019-05-31 12:00:00 23.3 4 Este 9 Nordeste 0 -- -- 34
2019-05-31 11:00:00 20.2 4 Nordeste 12 Nordeste 0 -- -- 41
2019-05-31 10:00:00 16.1 3 Norte 8 Este 0 -- -- 49
2019-05-31 09:00:00 11.9 0 Calma 6 Nordeste 0 -- -- 65
2019-05-31 08:00:00 7.8 0 Calma 3 Sudeste 0 -- -- 84
2019-05-31 07:00:00 6.7 0 Calma 6 Sudoeste 0 -- -- 83
2019-05-31 06:00:00 7.1 0 Calma 4 Sudeste 0 -- -- 82
2019-05-31 05:00:00 7.9 0 Calma 3 Sudoeste 0 -- -- 81
2019-05-31 04:00:00 8.7 0 Calma 9 Sudoeste 0 -- -- 79
2019-05-31 03:00:00 9.9 5 Sudoeste 8 Sudoeste 0 -- -- 75
2019-05-31 02:00:00 11.8 0 Calma 5 Sudeste 0 -- -- 67
2019-05-31 01:00:00 13.5 0 Calma 4 Sudoeste 0 -- -- 64
2019-05-31 00:00:00 16.3 3 Oeste 7 Nordeste 0 -- -- 54
2019-05-30 23:00:00 18.9 6 Noroeste 23 Norte 0 -- -- 39
2019-05-30 22:00:00 20.6 12 Norte 21 Norte 0 -- -- 33
2019-05-30 21:00:00 22.7 13 Norte 23 Norte 0 -- -- 25
2019-05-30 20:00:00 27 7 Noroeste 14 Oeste 0 -- -- 20
2019-05-30 19:00:00 27.4 8 Oeste 15 Sudoeste 0 -- -- 21
2019-05-30 18:00:00 27.3 8 Oeste 14 Oeste 0 -- -- 24
2019-05-30 17:00:00 26.8 10 Sudoeste 14 Oeste 0 -- -- 26
2019-05-30 16:00:00 26 9 Oeste 16 Oeste 0 -- -- 26
2019-05-30 15:00:00 25.2 9 Sudoeste 15 Oeste 0 -- -- 31
2019-05-30 14:00:00 23.7 6 Sudeste 15 Sudeste 0 -- -- 39
2019-05-30 13:00:00 21.7 4 Oeste 13 Sur 0 -- -- 39
2019-05-30 12:00:00 20 6 Este 12 Sudeste 0 -- -- 43
2019-05-30 11:00:00 17.2 2 Este 7 Sudeste 0 -- -- 47
2019-05-30 10:00:00 12.8 3 Sudeste 6 Sudeste 0 -- -- 64
2019-05-30 09:00:00 8.8 0 Calma 5 Nordeste 0 -- -- 80
2019-05-30 08:00:00 5.7 2 Este 4 Nordeste 0 -- -- 92
2019-05-30 07:00:00 4.6 0 Calma 4 Este 0 -- -- 91
2019-05-30 06:00:00 4.8 3 Este 6 Sudoeste 0 -- -- 89
2019-05-30 05:00:00 5.6 0 Calma 5 Sudeste 0 -- -- 88
2019-05-30 04:00:00 6.4 0 Calma 6 Sudeste 0 -- -- 86
2019-05-30 03:00:00 7.3 0 Calma 4 Este 0 -- -- 82
2019-05-30 02:00:00 8.1 2 Sur 8 Este 0 -- -- 80
2019-05-30 01:00:00 8.9 3 Sudeste 8 Este 0 -- -- 77
2019-05-30 00:00:00 10.4 3 Este 8 Noroeste 0 -- -- 71
2019-05-29 23:00:00 11.9 5 Oeste 20 Noroeste 0 -- -- 63
2019-05-29 22:00:00 13.8 11 Noroeste 19 Oeste 0 -- -- 54
2019-05-29 21:00:00 16.5 7 Noroeste 22 Oeste 0 -- -- 43
2019-05-29 20:00:00 18.7 16 Oeste 29 Oeste 0 -- -- 37
2019-05-29 19:00:00 19.5 19 Sudoeste 35 Sudoeste 0 -- -- 36
2019-05-29 18:00:00 21 13 Sudoeste 31 Sudoeste 0 -- -- 31
2019-05-29 17:00:00 21 10 Oeste 28 Sudoeste 0 -- -- 29
2019-05-29 16:00:00 20.6 10 Sudoeste 24 Sudoeste 0 -- -- 26
2019-05-29 15:00:00 19.9 15 Sudoeste 29 Oeste 0 -- -- 29
2019-05-29 14:00:00 19 10 Sudoeste 27 Oeste 0 -- -- 31
2019-05-29 13:00:00 17.7 13 Oeste 27 Oeste 0 -- -- 30
2019-05-29 12:00:00 16.2 14 Oeste 31 Oeste 0 -- -- 34
2019-05-29 11:00:00 14.7 16 Oeste 28 Oeste 0 -- -- 35
2019-05-29 10:00:00 11.6 6 Sudoeste 13 Sur 0 -- -- 55
2019-05-29 09:00:00 7.9 2 Este 8 Este 0 -- -- 74
2019-05-29 08:00:00 5.3 2 Este 10 Este 0 -- -- 84
2019-05-29 07:00:00 4.2 4 Sur 11 Sudeste 0 -- -- 86
2019-05-29 06:00:00 4.6 0 Calma 13 Sudeste 0 -- -- 85
2019-05-29 05:00:00 4.9 2 Sudeste 9 Este 0 -- -- 84
2019-05-29 04:00:00 5.6 2 Sudoeste 7 Sudoeste 0 -- -- 82
2019-05-29 03:00:00 6.6 3 Norte 11 Este 0 -- -- 77
2019-05-29 02:00:00 7.4 7 Este 14 Oeste 0 -- -- 73
2019-05-29 01:00:00 8.6 6 Oeste 15 Oeste 0 -- -- 66
2019-05-29 00:00:00 9.9 4 Oeste 25 Oeste 0 -- -- 56
2019-05-28 23:00:00 10.4 13 Noroeste 30 Noroeste 0 -- -- 53
2019-05-28 22:00:00 11.5 14 Oeste 28 Noroeste 0 -- -- 48
2019-05-28 21:00:00 12.8 13 Oeste 31 Oeste 0 -- -- 46
2019-05-28 20:00:00 14.8 19 Oeste 41 Oeste 0 -- -- 40
2019-05-28 19:00:00 15.4 21 Oeste 46 Oeste 0 -- -- 37
2019-05-28 18:00:00 16.6 21 Oeste 57 Oeste 0 -- -- 38
2019-05-28 17:00:00 18 27 Sudoeste 47 Sudoeste 0 -- -- 36
2019-05-28 16:00:00 18.7 18 Sudoeste 47 Oeste 0 -- -- 30
2019-05-28 15:00:00 18.1 24 Oeste 41 Oeste 0 -- -- 36
2019-05-28 14:00:00 18.5 15 Oeste 42 Oeste 0 -- -- 33
2019-05-28 13:00:00 17 23 Sudoeste 37 Sudoeste 0 -- -- 42
2019-05-28 12:00:00 16.7 18 Sudoeste 31 Sudoeste 0 -- -- 36
2019-05-28 11:00:00 15.2 5 Sudoeste 18 Oeste 0 -- -- 43
2019-05-28 10:00:00 11.4 4 Sur 9 Sur 0 -- -- 60
2019-05-28 09:00:00 8.5 4 Sudeste 6 Sur 0 -- -- 73
2019-05-28 08:00:00 6.5 3 Este 9 Sudeste 0 -- -- 85
2019-05-28 07:00:00 5.5 3 Este 8 Este 0 -- -- 87
2019-05-28 06:00:00 5.8 2 Sur 6 Este 0 -- -- 86
2019-05-28 05:00:00 6.8 3 Sudeste 8 Sudoeste 0 -- -- 80
2019-05-28 04:00:00 7.7 3 Sudoeste 10 Oeste 0 -- -- 78
2019-05-28 03:00:00 8.1 2 Sudeste 7 Oeste 0 -- -- 79
2019-05-28 02:00:00 8.6 4 Oeste 9 Sudoeste 0 -- -- 78
2019-05-28 01:00:00 9.8 2 Sur 13 Noroeste 0 -- -- 77
2019-05-28 00:00:00 11 5 Noroeste 19 Sudoeste 0 -- -- 74
2019-05-27 23:00:00 12.7 9 Oeste 26 Oeste 0 -- -- 71
2019-05-27 22:00:00 14.9 12 Oeste 32 Oeste 0 -- -- 62
2019-05-27 21:00:00 17 13 Oeste 29 Oeste 0 -- -- 53
2019-05-27 20:00:00 18.9 12 Oeste 37 Noroeste 0 -- -- 49
2019-05-27 19:00:00 19.8 20 Oeste 46 Noroeste 0 -- -- 46
2019-05-27 18:00:00 21.4 24 Oeste 45 Oeste 0 -- -- 42
2019-05-27 17:00:00 22.6 18 Oeste 34 Oeste 0 -- -- 39
2019-05-27 16:00:00 22.3 17 Oeste 29 Oeste 0 -- -- 45
2019-05-27 15:00:00 21.8 13 Oeste 23 Noroeste 0 -- -- 45
2019-05-27 14:00:00 20 5 Oeste 21 Noroeste 0 -- -- 51
2019-05-27 13:00:00 18.2 11 Oeste 22 Oeste 0 -- -- 53
2019-05-27 12:00:00 16.6 5 Noroeste 15 Nordeste 0 -- -- 59
2019-05-27 11:00:00 13.8 4 Noroeste 11 Oeste 0 -- -- 66
2019-05-27 10:00:00 11.8 2 Este 9 Este 0 -- -- 75
2019-05-27 09:00:00 9.4 3 Este 7 Este 0 -- -- 85
2019-05-27 08:00:00 6.8 0 Calma 5 Norte 0 -- -- 93
2019-05-27 07:00:00 5.5 0 Calma 5 Norte 0 -- -- 93
2019-05-27 06:00:00 5.9 0 Calma 5 Este 0 -- -- 92
2019-05-27 05:00:00 6.8 4 Norte 9 Noroeste 0 -- -- 91
2019-05-27 04:00:00 7.2 2 Nordeste 5 Norte 0 -- -- 90
2019-05-27 03:00:00 8 2 Este 6 Sudeste 0 -- -- 88
2019-05-27 02:00:00 8.8 3 Este 6 Sudeste 0 -- -- 86
2019-05-27 01:00:00 10.3 3 Sudeste 11 Oeste 0 -- -- 81
2019-05-27 00:00:00 11.3 2 Sudoeste 14 Oeste 0 -- -- 77
2019-05-26 23:00:00 12.6 11 Oeste 21 Oeste 0 -- -- 71
2019-05-26 22:00:00 15.7 6 Oeste 18 Oeste 0 -- -- 53
2019-05-26 21:00:00 17.7 8 Oeste 24 Noroeste 0 -- -- 42
2019-05-26 20:00:00 19.4 15 Oeste 29 Oeste 0 -- -- 39
2019-05-26 19:00:00 20.5 15 Oeste 33 Oeste 0 -- -- 37
2019-05-26 18:00:00 21.2 14 Oeste 32 Oeste 0 -- -- 37
2019-05-26 17:00:00 21.3 15 Oeste 29 Oeste 0 -- -- 38
2019-05-26 16:00:00 21 15 Oeste 26 Sudoeste 0 -- -- 40
2019-05-26 15:00:00 20.7 13 Oeste 26 Oeste 0 -- -- 39
2019-05-26 14:00:00 19.9 15 Oeste 27 Noroeste 0 -- -- 41
2019-05-26 13:00:00 18.6 8 Noroeste 18 Noroeste 0 -- -- 42
2019-05-26 12:00:00 16.9 5 Nordeste 13 Este 0 -- -- 53
2019-05-26 11:00:00 14.1 2 Nordeste 12 Noroeste 0 -- -- 62
2019-05-26 10:00:00 11 0 Calma 8 Este 0 -- -- 72
2019-05-26 09:00:00 8 2 Este 8 Este 0 -- -- 91
2019-05-26 08:00:00 5.1 2 Este 4 Este 0 -- -- 95
2019-05-26 07:00:00 4.4 0 Calma 3 Nordeste 0 -- -- 93
2019-05-26 06:00:00 4.8 0 Calma 5 Este 0 -- -- 92
2019-05-26 05:00:00 5.2 3 Sudeste 5 Sudeste 0 -- -- 91
2019-05-26 04:00:00 6.4 0 Calma 5 Este 0 -- -- 90
2019-05-26 03:00:00 6.9 2 Este 8 Sudeste 0 -- -- 89
2019-05-26 02:00:00 7.7 2 Este 6 Este 0 -- -- 87
2019-05-26 01:00:00 9.2 3 Sudeste 11 Oeste 0 -- -- 83
2019-05-26 00:00:00 10 4 Oeste 17 Sudoeste 0 -- -- 81
2019-05-25 23:00:00 11.1 8 Oeste 19 Oeste 0 -- -- 75
2019-05-25 22:00:00 13.8 6 Oeste 23 Oeste 0 -- -- 59
2019-05-25 21:00:00 16.7 9 Oeste 27 Nordeste 0 -- -- 46
2019-05-25 20:00:00 18.6 12 Noroeste 30 Norte 0 -- -- 36
2019-05-25 19:00:00 18.9 19 Norte 36 Norte 0 -- -- 39
2019-05-25 18:00:00 19.4 19 Norte 35 Norte 0 -- -- 39
2019-05-25 17:00:00 21.4 12 Noroeste 33 Norte 0 -- -- 36
2019-05-25 16:00:00 20.9 10 Norte 34 Norte 0 -- -- 38
2019-05-25 15:00:00 21 16 Norte 33 Nordeste 0 -- -- 38
2019-05-25 14:00:00 20.6 8 Oeste 20 Oeste 0 -- -- 40
2019-05-25 13:00:00 19.4 9 Sudoeste 23 Sudoeste 0 -- -- 45
2019-05-25 12:00:00 18 8 Sudoeste 19 Oeste 0 -- -- 48
2019-05-25 11:00:00 15.7 5 Nordeste 13 Sudeste 0 -- -- 62
2019-05-25 10:00:00 12.3 5 Sudeste 11 Noroeste 0 -- -- 74
2019-05-25 09:00:00 10 4 Oeste 11 Oeste 0 -- -- 80
2019-05-25 08:00:00 7.3 0 Calma 7 Sur 0 -- -- 92
2019-05-25 07:00:00 6.5 0 Calma 6 Sudoeste 0 -- -- 92
2019-05-25 06:00:00 6.8 2 Sudeste 9 Sudoeste 0 -- -- 90
2019-05-25 05:00:00 7.5 0 Calma 8 Sudoeste 0 -- -- 89
2019-05-25 04:00:00 8 3 Sudeste 9 Este 0 -- -- 89
2019-05-25 03:00:00 8.3 4 Sur 11 Sudoeste 0 -- -- 88
2019-05-25 02:00:00 8.8 3 Sur 12 Este 0 -- -- 87
2019-05-25 01:00:00 9.4 2 Este 9 Nordeste 0 -- -- 85
2019-05-25 00:00:00 10.3 2 Sur 8 Sur 0 -- -- 82
2019-05-24 23:00:00 11.9 0 Calma 13 Sudoeste 0 -- -- 74
2019-05-24 22:00:00 13.1 9 Oeste 22 Oeste 0 -- -- 67
2019-05-24 21:00:00 14.8 8 Sudoeste 24 Oeste 0 -- -- 60
2019-05-24 20:00:00 16.1 13 Oeste 24 Oeste 0 -- -- 54
2019-05-24 19:00:00 16.8 10 Oeste 24 Noroeste 0 -- -- 52
2019-05-24 18:00:00 18 15 Norte 24 Norte 0 -- -- 47
2019-05-24 17:00:00 17.8 4 Nordeste 26 Oeste 0 -- -- 48
2019-05-24 16:00:00 17 10 Oeste 21 Sudoeste 0 -- -- 54
2019-05-24 15:00:00 16.5 5 Oeste 14 Sur 0 -- -- 60
2019-05-24 14:00:00 16.1 6 Sudoeste 23 Oeste 0 -- -- 62
2019-05-24 13:00:00 14.8 11 Oeste 18 Oeste 0 -- -- 68
2019-05-24 12:00:00 13.7 6 Sur 17 Oeste 0 -- -- 81
2019-05-24 11:00:00 12 8 Oeste 17 Oeste 0 -- -- 86
2019-05-24 10:00:00 11 11 Oeste 20 Oeste 0 -- -- 91
2019-05-24 09:00:00 10.5 8 Oeste 17 Oeste 0 -- -- 94
2019-05-24 08:00:00 10.5 6 Sudoeste 14 Oeste 0.8 -- -- 95
2019-05-24 07:00:00 10.5 7 Oeste 24 Oeste 2.2 -- -- 95
2019-05-24 06:00:00 11.1 3 Sur 14 Norte 1.2 -- -- 96
2019-05-24 05:00:00 10.9 3 Oeste 16 Nordeste 1.4 -- -- 95
2019-05-24 04:00:00 10.9 4 Noroeste 30 Noroeste 4.4 -- -- 92
2019-05-24 03:00:00 12.7 14 Oeste 29 Oeste 0 -- -- 83
2019-05-24 02:00:00 13.2 5 Norte 11 Oeste 0 -- -- 81
2019-05-24 01:00:00 13.3 5 Oeste 12 Oeste 0 -- -- 79
2019-05-24 00:00:00 14.6 6 Oeste 22 Norte 0 -- -- 71
2019-05-23 23:00:00 15.6 4 Norte 33 Norte 0 -- -- 56
2019-05-23 22:00:00 15.5 22 Norte 46 Norte 0 -- -- 59
2019-05-23 21:00:00 16.7 18 Norte 42 Nordeste 0 -- -- 55
2019-05-23 20:00:00 17.9 27 Oeste 52 Sudoeste 0 -- -- 65
2019-05-23 19:00:00 23 13 Oeste 23 Oeste 0 -- -- 36
2019-05-23 18:00:00 23.8 10 Oeste 22 Oeste 0 -- -- 33
2019-05-23 17:00:00 23.8 12 Oeste 20 Oeste 0 -- -- 33
2019-05-23 16:00:00 24.5 12 Oeste 22 Noroeste 0 -- -- 30
2019-05-23 15:00:00 24 13 Oeste 22 Oeste 0 -- -- 30
2019-05-23 14:00:00 22.8 14 Oeste 28 Oeste 0 -- -- 31
2019-05-23 13:00:00 22.8 15 Oeste 26 Oeste 0 -- -- 30
2019-05-23 12:00:00 21.9 4 Este 9 Nordeste 0 -- -- 39
2019-05-23 11:00:00 19 4 Este 7 Este 0 -- -- 50
2019-05-23 10:00:00 15.3 4 Norte 8 Norte 0 -- -- 62
2019-05-23 09:00:00 11.2 0 Calma 4 Norte 0 -- -- 78
2019-05-23 08:00:00 7.7 0 Calma 4 Sudoeste 0 -- -- 90
2019-05-23 07:00:00 6.7 0 Calma 4 Oeste 0 -- -- 89
2019-05-23 06:00:00 7.3 0 Calma 5 Sudoeste 0 -- -- 88
2019-05-23 05:00:00 8.2 0 Calma 6 Sudeste 0 -- -- 86
2019-05-23 04:00:00 8.4 3 Sudeste 8 Este 0 -- -- 86
2019-05-23 03:00:00 8.6 0 Calma 6 Este 0 -- -- 85
2019-05-23 02:00:00 9.1 3 Sudeste 5 Sudeste 0 -- -- 83
2019-05-23 01:00:00 10.2 0 Calma 6 Este 0 -- -- 79
2019-05-23 00:00:00 11.4 0 Calma 5 Sudeste 0 -- -- 74
2019-05-22 23:00:00 13.3 3 Sudeste 5 Sudeste 0 -- -- 67
2019-05-22 22:00:00 16.1 4 Este 9 Sudoeste 0 -- -- 55
2019-05-22 21:00:00 20 6 Sudoeste 16 Oeste 0 -- -- 39
2019-05-22 20:00:00 22.4 11 Oeste 21 Sudoeste 0 -- -- 32
2019-05-22 19:00:00 22.3 10 Sudoeste 26 Sudoeste 0 -- -- 35
2019-05-22 18:00:00 23.3 8 Sudoeste 22 Sudoeste 0 -- -- 33
2019-05-22 17:00:00 23.2 6 Sudoeste 24 Sudoeste 0 -- -- 32
2019-05-22 16:00:00 22.3 13 Oeste 26 Oeste 0 -- -- 34
2019-05-22 15:00:00 22.6 13 Oeste 19 Sudoeste 0 -- -- 27
2019-05-22 14:00:00 21.9 4 Este 15 Sudoeste 0 -- -- 33
2019-05-22 13:00:00 20.3 5 Este 15 Sudoeste 0 -- -- 42
2019-05-22 12:00:00 18.6 5 Noroeste 14 Oeste 0 -- -- 50
2019-05-22 11:00:00 16.1 5 Sudeste 9 Noroeste 0 -- -- 58
2019-05-22 10:00:00 12.2 4 Sudeste 11 Este 0 -- -- 71
2019-05-22 09:00:00 8.2 3 Este 5 Este 0 -- -- 86
2019-05-22 08:00:00 5.5 0 Calma 3 Este 0 -- -- 93
2019-05-22 07:00:00 4.5 0 Calma 5 Oeste 0 -- -- 91
2019-05-22 06:00:00 5.1 0 Calma 6 Sudeste 0 -- -- 91
2019-05-22 05:00:00 5.6 0 Calma 9 Sudoeste 0 -- -- 89
2019-05-22 04:00:00 6.3 0 Calma 7 Sudoeste 0 -- -- 88
2019-05-22 03:00:00 7.1 0 Calma 8 Sudoeste 0 -- -- 86
2019-05-22 02:00:00 8 4 Sudoeste 9 Oeste 0 -- -- 84
2019-05-22 01:00:00 9.2 0 Calma 9 Sudoeste 0 -- -- 80
2019-05-22 00:00:00 11.8 3 Sur 14 Noroeste 0 -- -- 69
2019-05-21 23:00:00 13.1 6 Norte 14 Noroeste 0 -- -- 61
2019-05-21 22:00:00 14.3 6 Noroeste 13 Sudoeste 0 -- -- 57
2019-05-21 21:00:00 16.4 6 Oeste 29 Oeste 0 -- -- 48
2019-05-21 20:00:00 18.5 13 Oeste 29 Sudoeste 0 -- -- 41
2019-05-21 19:00:00 20.1 17 Oeste 29 Noroeste 0 -- -- 36
2019-05-21 18:00:00 20.7 15 Oeste 27 Oeste 0 -- -- 32
2019-05-21 17:00:00 21.4 13 Oeste 25 Oeste 0 -- -- 29
2019-05-21 16:00:00 20.8 10 Sudoeste 19 Norte 0 -- -- 27
2019-05-21 15:00:00 20.7 7 Oeste 21 Noroeste 0 -- -- 27
2019-05-21 14:00:00 19.7 7 Oeste 21 Noroeste 0 -- -- 32
2019-05-21 13:00:00 18.7 6 Noroeste 14 Oeste 0 -- -- 33
2019-05-21 12:00:00 17.4 5 Sudeste 9 Sudoeste 0 -- -- 40
2019-05-21 11:00:00 14.2 3 Este 9 Nordeste 0 -- -- 54
2019-05-21 10:00:00 10.6 4 Nordeste 13 Nordeste 0 -- -- 64
2019-05-21 09:00:00 6.7 0 Calma 5 Nordeste 0 -- -- 85
2019-05-21 08:00:00 3.2 0 Calma 3 Sudeste 0 -- -- 94
2019-05-21 07:00:00 2.6 2 Noroeste 6 Este 0 -- -- 92
2019-05-21 06:00:00 2.9 0 Calma 8 Oeste 0 -- -- 91
2019-05-21 05:00:00 3.4 0 Calma 6 Este 0 -- -- 91
2019-05-21 04:00:00 4 0 Calma 5 Sudeste 0 -- -- 90
2019-05-21 03:00:00 4.8 0 Calma 6 Este 0 -- -- 88
2019-05-21 02:00:00 5.7 2 Sudeste 6 Sudeste 0 -- -- 85
2019-05-21 01:00:00 7 2 Sudeste 8 Oeste 0 -- -- 80
2019-05-21 00:00:00 8.6 3 Nordeste 7 Nordeste 0 -- -- 73
2019-05-20 23:00:00 10.5 5 Este 10 Norte 0 -- -- 68
2019-05-20 22:00:00 12.8 6 Oeste 14 Oeste 0 -- -- 55
2019-05-20 21:00:00 14.9 8 Oeste 18 Oeste 0 -- -- 46
2019-05-20 20:00:00 17.6 10 Oeste 26 Oeste 0 -- -- 39
2019-05-20 19:00:00 18 15 Oeste 30 Noroeste 0 -- -- 36
2019-05-20 18:00:00 17.9 13 Oeste 26 Oeste 0 -- -- 36
2019-05-20 17:00:00 18.3 14 Oeste 28 Oeste 0 -- -- 37
2019-05-20 16:00:00 18.2 13 Oeste 24 Oeste 0 -- -- 37
2019-05-20 15:00:00 17.3 12 Sudoeste 21 Sudoeste 0 -- -- 37
2019-05-20 14:00:00 17.4 8 Oeste 21 Noroeste 0 -- -- 40
2019-05-20 13:00:00 15.9 9 Noroeste 24 Oeste 0 -- -- 41
2019-05-20 12:00:00 14.1 9 Oeste 17 Oeste 0 -- -- 49
2019-05-20 11:00:00 11.8 4 Este 10 Este 0 -- -- 63
2019-05-20 10:00:00 8.5 3 Sur 9 Este 0 -- -- 72
2019-05-20 09:00:00 5.8 0 Calma 6 Nordeste 0 -- -- 86
2019-05-20 08:00:00 3 2 Norte 7 Oeste 0 -- -- 91
2019-05-20 07:00:00 3.3 0 Calma 5 Noroeste 0 -- -- 87
2019-05-20 06:00:00 3.8 0 Calma 5 Norte 0 -- -- 86
2019-05-20 05:00:00 5.2 4 Nordeste 7 Nordeste 0 -- -- 86
2019-05-20 04:00:00 5.3 0 Calma 7 Este 0 -- -- 91
2019-05-20 03:00:00 4.6 4 Sudeste 6 Este 0 -- -- 90
2019-05-20 02:00:00 5.3 0 Calma 6 Este 0 -- -- 88
2019-05-20 01:00:00 6.7 0 Calma 10 Noroeste 0 -- -- 84
2019-05-20 00:00:00 6.9 2 Sudeste 14 Sudoeste 0 -- -- 82
2019-05-19 23:00:00 8 5 Sudoeste 18 Noroeste 0 -- -- 76
2019-05-19 22:00:00 9.4 9 Oeste 35 Oeste 0 -- -- 66
2019-05-19 21:00:00 10.6 15 Oeste 38 Oeste 0 -- -- 63
2019-05-19 20:00:00 13.3 16 Oeste 35 Sudoeste 0 -- -- 48
2019-05-19 19:00:00 13.9 21 Oeste 42 Oeste 0 -- -- 50
2019-05-19 18:00:00 14.5 21 Oeste 40 Oeste 0 -- -- 50
2019-05-19 17:00:00 14.5 17 Oeste 41 Sudoeste 0 -- -- 51
2019-05-19 16:00:00 14.7 19 Sudoeste 38 Sudoeste 0 -- -- 52
2019-05-19 15:00:00 13.8 20 Sudoeste 41 Sudoeste 0 -- -- 57
2019-05-19 14:00:00 12.5 17 Sudoeste 31 Oeste 0 -- -- 63
2019-05-19 13:00:00 12.1 17 Oeste 29 Oeste 0 -- -- 62
2019-05-19 12:00:00 9.9 15 Oeste 29 Oeste 0 -- -- 71
2019-05-19 11:00:00 8.7 15 Oeste 33 Noroeste 0 -- -- 72
2019-05-19 10:00:00 7.3 15 Noroeste 26 Noroeste 0 -- -- 79
2019-05-19 09:00:00 6.5 14 Noroeste 24 Noroeste 0 -- -- 81
2019-05-19 08:00:00 5.1 10 Oeste 20 Noroeste 0 -- -- 85
2019-05-19 07:00:00 4.6 9 Oeste 19 Noroeste 0 -- -- 87
2019-05-19 06:00:00 4.5 2 Oeste 16 Oeste 0 -- -- 88
2019-05-19 05:00:00 4.6 6 Oeste 17 Sudoeste 0 -- -- 87
2019-05-19 04:00:00 4.8 8 Oeste 19 Noroeste 0.2 -- -- 86
2019-05-19 03:00:00 5.1 9 Oeste 22 Noroeste 0 -- -- 83
2019-05-19 02:00:00 5.5 8 Oeste 16 Oeste 0 -- -- 84
2019-05-19 01:00:00 6 7 Oeste 18 Noroeste 0 -- -- 84
2019-05-19 00:00:00 6.9 11 Oeste 19 Oeste 0 -- -- 77
2019-05-18 23:00:00 7.2 4 Sudoeste 24 Oeste 0 -- -- 73
2019-05-18 22:00:00 8.1 15 Sudoeste 30 Oeste 0 -- -- 68
2019-05-18 21:00:00 9.2 13 Oeste 36 Sudoeste 0 -- -- 64
2019-05-18 20:00:00 11.5 15 Sudoeste 37 Sudoeste 0 -- -- 57
2019-05-18 19:00:00 12.5 16 Sudoeste 39 Sudoeste 0 -- -- 56
2019-05-18 18:00:00 13.4 21 Sudoeste 40 Sudoeste 0 -- -- 50
2019-05-18 17:00:00 13 16 Oeste 33 Oeste 0.4 -- -- 56
2019-05-18 16:00:00 11.2 14 Oeste 34 Sudoeste 0 -- -- 65
2019-05-18 15:00:00 11.6 17 Sudoeste 41 Oeste 0 -- -- 60
2019-05-18 14:00:00 11.8 17 Oeste 33 Sudoeste 0 -- -- 56
2019-05-18 13:00:00 12.4 19 Oeste 32 Sudoeste 0 -- -- 53
2019-05-18 12:00:00 11.9 15 Oeste 27 Oeste 0 -- -- 51
2019-05-18 11:00:00 9.9 10 Oeste 23 Oeste 0 -- -- 57
2019-05-18 10:00:00 8.2 3 Norte 18 Oeste 0 -- -- 68
2019-05-18 09:00:00 6.2 3 Norte 12 Noroeste 0 -- -- 83
2019-05-18 08:00:00 5.1 4 Nordeste 8 Norte 0 -- -- 89
2019-05-18 07:00:00 4.7 5 Norte 12 Norte 0 -- -- 90
2019-05-18 06:00:00 4.6 0 Calma 5 Nordeste 0 -- -- 93
2019-05-18 05:00:00 4.3 2 Nordeste 5 Este 0 -- -- 93
2019-05-18 04:00:00 4.5 0 Calma 6 Nordeste 0 -- -- 91
2019-05-18 03:00:00 4.9 0 Calma 7 Norte 0 -- -- 89
2019-05-18 02:00:00 5.2 3 Nordeste 9 Norte 0 -- -- 88
2019-05-18 01:00:00 6.1 3 Nordeste 12 Oeste 0 -- -- 83
2019-05-18 00:00:00 7 0 Calma 15 Oeste 0 -- -- 77
2019-05-17 23:00:00 7.6 6 Sudoeste 21 Oeste 0 -- -- 74
2019-05-17 22:00:00 8.6 14 Oeste 28 Sudoeste 0 -- -- 67
2019-05-17 21:00:00 9.9 14 Oeste 34 Sudoeste 0 -- -- 62
2019-05-17 20:00:00 11.5 15 Oeste 33 Oeste 0 -- -- 58
2019-05-17 19:00:00 12 19 Sudoeste 36 Oeste 0 -- -- 58
2019-05-17 18:00:00 12.9 15 Oeste 43 Oeste 0 -- -- 49
2019-05-17 17:00:00 11.7 22 Oeste 38 Sudoeste 0 -- -- 63
2019-05-17 16:00:00 12 18 Oeste 35 Oeste 0 -- -- 66
2019-05-17 15:00:00 10.9 14 Sudoeste 35 Oeste 0 -- -- 73
2019-05-17 14:00:00 11.1 13 Oeste 24 Oeste 0 -- -- 78
2019-05-17 13:00:00 9.1 6 Oeste 21 Oeste 0 -- -- 87
2019-05-17 12:00:00 8.7 6 Oeste 17 Oeste 0 -- -- 89
2019-05-17 11:00:00 7.9 8 Noroeste 17 Oeste 0 -- -- 90
2019-05-17 10:00:00 7.3 9 Oeste 23 Oeste 2 -- -- 92
2019-05-17 09:00:00 7.1 12 Oeste 22 Noroeste 3.2 -- -- 94
2019-05-17 08:00:00 7.2 10 Oeste 23 Noroeste 2.2 -- -- 94
2019-05-17 07:00:00 7.5 10 Noroeste 24 Noroeste 2.8 -- -- 93
2019-05-17 06:00:00 8.3 12 Oeste 26 Noroeste 7.4 -- -- 93
2019-05-17 05:00:00 9 5 Sur 39 Oeste 16.8 -- -- 93
2019-05-17 04:00:00 10.8 19 Oeste 40 Noroeste 0.8 -- -- 90
2019-05-17 03:00:00 11.9 5 Oeste 12 Este 0 -- -- 86
2019-05-17 02:00:00 12.5 5 Sudeste 14 Este 0.2 -- -- 90
2019-05-17 01:00:00 12.7 2 Norte 14 Sudoeste 2.4 -- -- 92
2019-05-17 00:00:00 13.8 4 Oeste 8 Oeste 0 -- -- 87